createdAt,value
2023-02-23T00:01:54.497Z,4.78
2023-02-23T00:04:23.728Z,3.75
2023-02-23T00:06:55.231Z,5.22
2023-02-23T00:09:23.153Z,4.20
2023-02-23T00:11:55.890Z,4.63
2023-02-23T00:14:31.361Z,4.30
2023-02-23T00:17:00.021Z,4.05
2023-02-23T00:19:27.675Z,4.28
2023-02-23T00:21:55.045Z,4.57
2023-02-23T00:24:23.515Z,4.90
2023-02-23T00:26:51.596Z,4.57
2023-02-23T00:29:22.223Z,4.72
2023-02-23T00:31:50.802Z,4.70
2023-02-23T00:34:21.903Z,3.97
2023-02-23T00:36:56.931Z,5.13
2023-02-23T00:39:29.342Z,4.47
2023-02-23T00:42:03.595Z,5.22
2023-02-23T00:44:32.777Z,5.18
2023-02-23T00:47:00.960Z,4.30
2023-02-23T00:49:28.210Z,4.05
2023-02-23T00:51:55.475Z,4.30
2023-02-23T00:54:23.041Z,4.78
2023-02-23T00:56:50.562Z,4.53
2023-02-23T00:59:19.336Z,4.85
2023-02-23T01:01:46.463Z,5.18
2023-02-23T01:04:13.837Z,5.07
2023-02-23T01:06:41.766Z,5.85
2023-02-23T01:09:13.706Z,4.80
2023-02-23T01:11:41.993Z,4.63
2023-02-23T01:14:10.653Z,5.18
2023-02-23T01:16:39.039Z,4.80
2023-02-23T01:19:07.097Z,4.90
2023-02-23T01:21:38.242Z,5.88
2023-02-23T01:24:06.366Z,4.80
2023-02-23T01:26:38.244Z,4.20
2023-02-23T01:29:11.374Z,5.13
2023-02-23T01:31:41.242Z,5.40
2023-02-23T01:34:11.959Z,4.40
2023-02-23T01:36:41.091Z,5.28
2023-02-23T01:39:12.307Z,5.18
2023-02-23T01:41:44.614Z,5.45
2023-02-23T01:44:15.081Z,5.20
2023-02-23T01:46:45.620Z,5.18
2023-02-23T01:49:34.649Z,5.03
2023-02-23T01:52:11.072Z,5.00
2023-02-23T01:54:43.845Z,4.82
2023-02-23T01:57:14.637Z,5.65
2023-02-23T01:59:45.143Z,5.82
2023-02-23T02:02:13.722Z,5.82
2023-02-23T02:04:46.300Z,5.63
2023-02-23T02:07:17.223Z,5.72
2023-02-23T02:10:09.488Z,5.88
2023-02-23T02:12:58.157Z,4.93
2023-02-23T02:15:33.193Z,4.72
2023-02-23T02:18:26.685Z,5.70
2023-02-23T02:21:24.584Z,5.00
2023-02-23T02:24:15.267Z,6.05
2023-02-23T02:26:52.625Z,5.35
2023-02-23T02:29:26.405Z,5.10
2023-02-23T02:32:12.099Z,5.95
2023-02-23T02:35:07.737Z,5.53
2023-02-23T02:38:12.853Z,6.07
2023-02-23T02:41:13.704Z,5.45
2023-02-23T02:43:51.291Z,5.63
2023-02-23T02:46:25.262Z,5.50
2023-02-23T02:49:31.650Z,6.30
2023-02-23T02:52:11.859Z,5.78
2023-02-23T02:54:48.875Z,6.20
2023-02-23T02:57:18.381Z,6.03
2023-02-23T03:00:06.865Z,5.70
2023-02-23T03:02:56.134Z,6.43
2023-02-23T03:05:47.790Z,5.97
2023-02-23T03:08:40.994Z,6.15
2023-02-23T03:11:31.884Z,5.90
2023-02-23T03:14:53.986Z,5.88
2023-02-23T03:17:55.917Z,5.97
2023-02-23T03:23:42.409Z,5.25
2023-02-23T03:26:40.325Z,5.55
2023-02-23T03:29:29.520Z,6.22
2023-02-23T03:32:22.904Z,5.88
2023-02-23T03:35:22.640Z,6.40
2023-02-23T03:38:17.403Z,6.47
2023-02-23T03:41:07.281Z,6.03
2023-02-23T03:44:00.580Z,6.55
2023-02-23T03:46:50.269Z,5.60
2023-02-23T03:49:37.745Z,6.07
2023-02-23T03:52:35.541Z,5.78
2023-02-23T03:55:26.482Z,6.65
2023-02-23T03:58:19.795Z,6.53
2023-02-23T04:01:08.697Z,5.82
2023-02-23T04:04:00.373Z,5.78
2023-02-23T04:06:51.634Z,6.03
2023-02-23T04:09:37.375Z,6.00
2023-02-23T04:12:34.484Z,5.35
2023-02-23T04:15:19.915Z,6.07
2023-02-23T04:17:47.224Z,5.65
2023-02-23T04:20:14.732Z,5.90
2023-02-23T04:22:41.710Z,5.68
2023-02-23T04:25:10.058Z,4.40
2023-02-23T04:27:37.207Z,5.55
2023-02-23T04:30:05.907Z,5.57
2023-02-23T04:32:32.886Z,5.95
2023-02-23T04:35:00.539Z,5.15
2023-02-23T04:37:27.530Z,5.07
2023-02-23T04:39:54.859Z,6.55
2023-02-23T04:42:21.681Z,4.88
2023-02-23T04:44:49.896Z,4.88
2023-02-23T04:47:17.574Z,5.90
2023-02-23T04:49:45.207Z,5.38
2023-02-23T04:52:12.783Z,5.50
2023-02-23T04:54:41.129Z,5.43
2023-02-23T04:57:09.005Z,5.68
2023-02-23T04:59:36.988Z,5.47
2023-02-23T05:02:04.337Z,5.43
2023-02-23T05:04:35.425Z,5.40
2023-02-23T05:07:03.895Z,5.83
2023-02-23T05:09:31.348Z,5.10
2023-02-23T05:11:58.772Z,5.82
2023-02-23T05:14:26.201Z,5.35
2023-02-23T05:16:53.569Z,4.93
2023-02-23T05:19:21.555Z,5.78
2023-02-23T05:21:50.635Z,5.40
2023-02-23T05:24:18.925Z,4.93
2023-02-23T05:26:46.514Z,5.00
2023-02-23T05:29:14.297Z,4.50
2023-02-23T05:31:42.560Z,5.45
2023-02-23T05:34:10.365Z,5.28
2023-02-23T05:36:38.340Z,4.95
2023-02-23T05:39:05.569Z,5.13
2023-02-23T05:41:32.906Z,5.15
2023-02-23T05:44:00.414Z,4.85
2023-02-23T05:46:28.243Z,5.43
2023-02-23T05:49:00.893Z,4.82
2023-02-23T05:51:30.061Z,4.47
2023-02-23T05:53:57.973Z,4.85
2023-02-23T05:56:25.619Z,4.43
2023-02-23T05:58:57.864Z,4.60
2023-02-23T06:01:26.350Z,4.97
2023-02-23T06:03:53.809Z,5.40
2023-02-23T06:06:22.365Z,4.72
2023-02-23T06:08:50.114Z,5.00
2023-02-23T06:11:18.003Z,4.78
2023-02-23T06:13:45.625Z,4.70
2023-02-23T06:16:13.002Z,5.05
2023-02-23T06:18:40.979Z,5.20
2023-02-23T06:21:08.678Z,4.70
2023-02-23T06:23:36.293Z,4.63
2023-02-23T06:26:03.332Z,4.95
2023-02-23T06:28:30.704Z,4.47
2023-02-23T06:30:57.852Z,4.32
2023-02-23T06:33:25.667Z,4.68
2023-02-23T06:35:54.791Z,4.32
2023-02-23T06:38:22.248Z,4.57
2023-02-23T06:40:49.514Z,3.10
2023-02-23T06:43:17.134Z,4.45
2023-02-23T06:45:46.092Z,4.97
2023-02-23T06:48:13.254Z,5.15
2023-02-23T06:50:40.141Z,4.85
2023-02-23T06:53:07.473Z,4.70
2023-02-23T06:55:34.457Z,4.35
2023-02-23T06:58:02.177Z,4.13
2023-02-23T07:00:30.562Z,4.72
2023-02-23T07:02:58.363Z,4.70
2023-02-23T07:05:26.332Z,4.32
2023-02-23T07:07:53.715Z,4.32
2023-02-23T07:10:21.043Z,3.80
2023-02-23T07:12:48.438Z,5.40
2023-02-23T07:15:18.124Z,4.72
2023-02-23T07:17:48.796Z,4.55
2023-02-23T07:20:16.218Z,4.50
2023-02-23T07:22:43.551Z,5.43
2023-02-23T07:25:11.203Z,5.00
2023-02-23T07:27:38.675Z,4.65
2023-02-23T07:30:06.203Z,5.05
2023-02-23T07:32:34.094Z,4.32
2023-02-23T07:35:03.266Z,5.22
2023-02-23T07:37:30.761Z,5.38
2023-02-23T07:39:59.481Z,4.85
2023-02-23T07:42:28.634Z,5.50
2023-02-23T07:44:56.276Z,4.75
2023-02-23T07:47:30.859Z,4.75
2023-02-23T07:49:59.815Z,5.28
2023-02-23T07:52:27.389Z,5.63
2023-02-23T07:54:54.833Z,5.63
2023-02-23T07:57:23.980Z,4.78
2023-02-23T07:59:51.965Z,6.20
2023-02-23T08:02:19.646Z,4.72
2023-02-23T08:04:47.998Z,5.15
2023-02-23T08:07:15.538Z,5.20
2023-02-23T08:09:42.866Z,5.35
2023-02-23T08:12:10.580Z,5.00
2023-02-23T08:14:37.508Z,5.53
2023-02-23T08:17:04.743Z,6.20
2023-02-23T08:19:32.081Z,6.10
2023-02-23T08:21:59.735Z,4.78
2023-02-23T08:24:27.218Z,5.68
2023-02-23T08:26:54.550Z,5.30
2023-02-23T08:29:22.359Z,4.85
2023-02-23T08:31:51.745Z,5.50
2023-02-23T08:34:20.236Z,5.47
2023-02-23T08:36:47.674Z,5.35
2023-02-23T08:39:15.701Z,5.00
2023-02-23T08:41:42.900Z,6.20
2023-02-23T08:44:10.238Z,5.75
2023-02-23T08:46:37.929Z,5.70
2023-02-23T08:49:06.092Z,5.47
2023-02-23T08:51:35.077Z,5.57
2023-02-23T08:54:02.433Z,5.88
2023-02-23T08:56:30.792Z,6.07
2023-02-23T08:58:57.801Z,6.13
2023-02-23T09:01:25.300Z,6.50
2023-02-23T09:03:52.368Z,6.55
2023-02-23T09:06:22.398Z,6.40
2023-02-23T09:08:50.563Z,6.25
2023-02-23T09:11:18.723Z,6.10
2023-02-23T09:13:46.214Z,6.35
2023-02-23T09:16:13.783Z,6.20
2023-02-23T09:18:41.297Z,6.53
2023-02-23T09:21:19.397Z,6.10
2023-02-23T09:23:48.350Z,6.45
2023-02-23T09:26:18.060Z,6.90
2023-02-23T09:28:45.439Z,6.50
2023-02-23T09:31:16.151Z,6.00
2023-02-23T09:33:43.314Z,7.35
2023-02-23T09:36:19.741Z,6.25
2023-02-23T09:38:49.053Z,7.25
2023-02-23T09:41:25.336Z,6.72
2023-02-23T09:44:12.639Z,5.85
2023-02-23T09:47:14.152Z,7.05
2023-02-23T09:49:45.361Z,6.47
2023-02-23T09:52:20.811Z,6.60
2023-02-23T09:54:48.309Z,6.45
2023-02-23T09:57:21.505Z,6.82
2023-02-23T09:59:48.648Z,7.05
2023-02-23T10:02:32.333Z,7.75
2023-02-23T10:05:05.841Z,6.38
2023-02-23T10:07:51.457Z,7.30
2023-02-23T10:10:26.321Z,5.75
2023-02-23T10:13:42.104Z,6.80
2023-02-23T10:16:42.867Z,6.53
2023-02-23T10:19:23.206Z,6.47
2023-02-23T10:21:56.674Z,7.45
2023-02-23T10:24:45.452Z,7.10
2023-02-23T10:27:19.306Z,7.00
2023-02-23T10:29:51.717Z,7.70
2023-02-23T10:32:46.224Z,7.28
2023-02-23T10:35:19.912Z,7.47
2023-02-23T10:37:48.140Z,7.72
2023-02-23T10:40:23.024Z,6.20
2023-02-23T10:42:54.295Z,6.82
2023-02-23T10:45:24.811Z,6.53
2023-02-23T10:48:04.235Z,7.25
2023-02-23T10:50:33.151Z,7.43
2023-02-23T10:53:35.967Z,6.72
2023-02-23T10:56:15.993Z,6.93
2023-02-23T10:58:46.814Z,7.43
2023-02-23T11:01:32.443Z,6.93
2023-02-23T11:04:14.450Z,7.63
2023-02-23T11:06:43.814Z,6.97
2023-02-23T11:09:43.760Z,6.68
2023-02-23T11:12:43.394Z,6.72
2023-02-23T11:15:46.563Z,7.00
2023-02-23T11:18:34.031Z,7.60
2023-02-23T11:21:02.013Z,7.05
2023-02-23T11:23:35.841Z,7.70
2023-02-23T11:26:06.261Z,7.93
2023-02-23T11:28:42.674Z,6.80
2023-02-23T11:31:18.873Z,7.20
2023-02-23T11:33:47.969Z,7.13
2023-02-23T11:36:29.134Z,7.00
2023-02-23T11:41:44.331Z,6.68
2023-02-23T11:44:23.409Z,7.20
2023-02-23T11:46:52.177Z,6.97
2023-02-23T11:49:33.342Z,6.15
2023-02-23T11:52:00.543Z,6.28
2023-02-23T11:54:31.083Z,7.15
2023-02-23T11:56:58.889Z,6.60
2023-02-23T11:59:37.279Z,7.40
2023-02-23T12:02:15.862Z,6.45
2023-02-23T12:04:47.659Z,6.50
2023-02-23T12:07:41.864Z,6.20
2023-02-23T12:10:18.949Z,6.97
2023-02-23T12:13:16.371Z,6.13
2023-02-23T12:15:52.508Z,7.07
2023-02-23T12:18:34.869Z,7.20
2023-02-23T12:21:12.307Z,6.05
2023-02-23T12:23:43.591Z,6.63
2023-02-23T12:26:18.110Z,6.57
2023-02-23T12:28:54.402Z,5.88
2023-02-23T12:31:31.142Z,5.63
2023-02-23T12:34:05.235Z,5.85
2023-02-23T12:36:52.597Z,6.78
2023-02-23T12:39:25.755Z,5.57
2023-02-23T12:41:53.162Z,5.57
2023-02-23T12:44:35.092Z,6.32
2023-02-23T12:47:15.062Z,6.05
2023-02-23T12:49:48.015Z,5.18
2023-02-23T12:52:28.008Z,6.07
2023-02-23T12:54:55.354Z,6.03
2023-02-23T12:57:48.477Z,6.20
2023-02-23T13:00:24.213Z,6.10
2023-02-23T13:03:44.181Z,6.10
2023-02-23T13:06:23.264Z,6.85
2023-02-23T13:09:02.626Z,6.35
2023-02-23T13:11:47.666Z,5.80
2023-02-23T13:14:20.284Z,6.28
2023-02-23T13:17:01.407Z,5.28
2023-02-23T13:19:47.648Z,6.18
2023-02-23T13:22:30.821Z,5.82
2023-02-23T13:25:04.571Z,5.43
2023-02-23T13:27:40.628Z,5.75
2023-02-23T13:30:12.695Z,5.32
2023-02-23T13:35:20.490Z,5.78
2023-02-23T13:38:07.553Z,5.88
2023-02-23T13:41:10.374Z,5.90
2023-02-23T13:44:18.328Z,5.72
2023-02-23T13:46:59.459Z,6.40
2023-02-23T13:49:47.127Z,6.57
2023-02-23T13:52:33.280Z,6.28
2023-02-23T13:55:05.742Z,6.88
2023-02-23T13:57:35.897Z,5.97
2023-02-23T14:00:03.556Z,6.47
2023-02-23T14:02:41.368Z,6.20
2023-02-23T14:05:25.106Z,6.43
2023-02-23T14:08:07.711Z,7.75
2023-02-23T14:10:43.494Z,6.18
2023-02-23T14:13:13.529Z,6.47
2023-02-23T14:15:49.958Z,6.95
2023-02-23T14:18:26.170Z,6.85
2023-02-23T14:21:12.975Z,6.70
2023-02-23T14:24:18.107Z,6.55
2023-02-23T14:27:15.094Z,6.93
2023-02-23T14:30:21.650Z,5.78
2023-02-23T14:32:51.253Z,6.03
2023-02-23T14:35:34.684Z,8.00
2023-02-23T14:38:07.585Z,6.90
2023-02-23T14:40:41.083Z,7.13
2023-02-23T14:43:53.171Z,7.10
2023-02-23T14:46:24.027Z,6.78
2023-02-23T14:49:19.415Z,6.20
2023-02-23T14:51:48.726Z,7.88
2023-02-23T14:54:36.143Z,6.88
2023-02-23T14:57:25.777Z,6.72
2023-02-23T14:59:58.870Z,6.88
2023-02-23T15:02:29.239Z,8.77
2023-02-23T15:07:41.780Z,7.38
2023-02-23T15:10:24.493Z,6.82
2023-02-23T15:12:52.150Z,6.40
2023-02-23T15:15:23.743Z,6.72
2023-02-23T15:17:55.451Z,7.10
2023-02-23T15:20:28.913Z,7.53
2023-02-23T15:22:59.276Z,7.00
2023-02-23T15:25:35.614Z,6.22
2023-02-23T15:28:33.320Z,7.53
2023-02-23T15:31:02.390Z,7.05
2023-02-23T15:33:30.456Z,7.68
2023-02-23T15:36:09.454Z,7.07
2023-02-23T15:38:47.062Z,9.80
2023-02-23T15:41:33.139Z,7.13
2023-02-23T15:44:12.628Z,6.95
2023-02-23T15:46:41.707Z,7.78
2023-02-23T15:49:12.916Z,7.30
2023-02-23T15:51:50.622Z,7.80
2023-02-23T15:54:24.571Z,7.82
2023-02-23T15:56:57.300Z,8.05
2023-02-23T15:59:35.436Z,8.35
2023-02-23T16:02:04.493Z,8.35
2023-02-23T16:04:33.614Z,9.38
2023-02-23T16:07:14.793Z,9.63
2023-02-23T16:09:50.776Z,8.43
2023-02-23T16:12:25.059Z,10.38
2023-02-23T16:14:57.201Z,9.65
2023-02-23T16:17:27.065Z,9.68
2023-02-23T16:20:24.832Z,9.68
2023-02-23T16:22:53.815Z,8.40
2023-02-23T16:25:24.679Z,8.23
2023-02-23T16:28:03.547Z,9.83
2023-02-23T16:30:31.266Z,9.18
2023-02-23T16:33:21.792Z,10.48
2023-02-23T16:36:06.680Z,9.88
2023-02-23T16:38:55.533Z,9.35
2023-02-23T16:41:23.821Z,10.10
2023-02-23T16:43:53.678Z,8.98
2023-02-23T16:46:25.357Z,9.32
2023-02-23T16:48:52.387Z,10.40
2023-02-23T16:51:23.088Z,9.50
2023-02-23T16:53:52.516Z,9.13
2023-02-23T16:56:22.340Z,9.25
2023-02-23T16:58:57.375Z,9.43
2023-02-23T17:01:24.782Z,8.93
2023-02-23T17:03:54.312Z,11.13
2023-02-23T17:06:22.807Z,10.77
2023-02-23T17:08:58.098Z,12.80
2023-02-23T17:11:26.117Z,11.23
2023-02-23T17:13:53.202Z,10.90
2023-02-23T17:16:21.152Z,10.18
2023-02-23T17:18:49.001Z,12.23
2023-02-23T17:21:22.932Z,10.43
2023-02-23T17:23:51.483Z,9.32
2023-02-23T17:26:24.282Z,10.02
2023-02-23T17:28:53.986Z,10.10
2023-02-23T17:31:24.728Z,10.65
2023-02-23T17:33:53.658Z,9.95
2023-02-23T17:36:21.531Z,10.57
2023-02-23T17:38:49.006Z,10.60
2023-02-23T17:41:18.622Z,10.02
2023-02-23T17:43:46.085Z,11.38
2023-02-23T17:46:13.793Z,10.48
2023-02-23T17:48:44.872Z,10.32
2023-02-23T17:51:13.694Z,11.38
2023-02-23T17:53:40.908Z,12.02
2023-02-23T17:56:09.529Z,12.73
2023-02-23T17:58:37.821Z,10.60
2023-02-23T18:01:07.199Z,11.32
2023-02-23T18:03:36.827Z,11.27
2023-02-23T18:06:07.832Z,10.45
2023-02-23T18:08:35.725Z,12.70
2023-02-23T18:11:03.160Z,12.15
2023-02-23T18:13:30.906Z,11.68
2023-02-23T18:16:06.220Z,11.98
2023-02-23T18:18:33.214Z,11.07
2023-02-23T18:21:00.863Z,11.98
2023-02-23T18:23:32.497Z,12.10
2023-02-23T18:26:15.133Z,11.63
2023-02-23T18:28:44.513Z,12.13
2023-02-23T18:31:19.586Z,12.20
2023-02-23T18:33:53.010Z,12.38
2023-02-23T18:36:22.015Z,13.55
2023-02-23T18:38:49.260Z,12.10
2023-02-23T18:41:16.981Z,11.73
2023-02-23T18:43:43.935Z,12.82
2023-02-23T18:46:13.290Z,12.73
2023-02-23T18:48:41.267Z,12.77
2023-02-23T18:51:12.395Z,13.07
2023-02-23T18:53:39.324Z,11.95
2023-02-23T18:56:16.222Z,12.40
2023-02-23T18:58:44.943Z,12.50
2023-02-23T19:01:20.586Z,11.57
2023-02-23T19:03:49.294Z,13.35
2023-02-23T19:06:17.911Z,12.98
2023-02-23T19:08:49.280Z,11.93
2023-02-23T19:13:43.388Z,12.75
2023-02-23T19:16:10.674Z,13.20
2023-02-23T19:18:37.549Z,13.10
2023-02-23T19:21:04.943Z,12.93
2023-02-23T19:23:31.901Z,12.95
2023-02-23T19:26:02.471Z,12.27
2023-02-23T19:28:30.215Z,12.90
2023-02-23T19:31:15.937Z,13.60
2023-02-23T19:33:43.550Z,13.45
2023-02-23T19:36:13.885Z,12.25
2023-02-23T19:38:45.741Z,12.25
2023-02-23T19:41:16.511Z,13.60
2023-02-23T19:43:43.774Z,12.98
2023-02-23T19:46:13.852Z,14.70
2023-02-23T19:48:40.818Z,13.07
2023-02-23T19:51:12.962Z,13.82
2023-02-23T19:53:40.183Z,13.98
2023-02-23T19:56:10.928Z,14.90
2023-02-23T19:58:38.315Z,15.02
2023-02-23T20:01:11.953Z,13.23
2023-02-23T20:03:43.346Z,13.88
2023-02-23T20:06:13.468Z,14.10
2023-02-23T20:08:42.227Z,15.30
2023-02-23T20:11:09.577Z,16.70
2023-02-23T20:13:38.670Z,15.00
2023-02-23T20:16:11.743Z,14.52
2023-02-23T20:18:40.222Z,14.35
2023-02-23T20:21:16.401Z,15.18
2023-02-23T20:23:44.661Z,13.38
2023-02-23T20:26:15.130Z,14.98
2023-02-23T20:28:42.338Z,15.65
2023-02-23T20:31:20.103Z,15.82
2023-02-23T20:33:50.837Z,15.77
2023-02-23T20:36:22.268Z,16.20
2023-02-23T20:38:49.233Z,16.90
2023-02-23T20:41:17.365Z,16.98
2023-02-23T20:43:44.935Z,18.15
2023-02-23T20:46:14.774Z,16.38
2023-02-23T20:48:42.671Z,18.15
2023-02-23T20:51:13.748Z,17.08
2023-02-23T20:53:42.025Z,17.48
2023-02-23T20:56:10.088Z,17.35
2023-02-23T20:58:37.207Z,17.85
2023-02-23T21:01:10.692Z,17.25
2023-02-23T21:03:37.680Z,17.42
2023-02-23T21:06:05.136Z,17.83
2023-02-23T21:08:32.176Z,18.35
2023-02-23T21:11:05.257Z,18.30
2023-02-23T21:13:34.030Z,18.45
2023-02-23T21:16:02.992Z,18.00
2023-02-23T21:18:31.386Z,18.05
2023-02-23T21:21:09.637Z,19.67
2023-02-23T21:23:38.589Z,18.25
2023-02-23T21:26:14.351Z,18.58
2023-02-23T21:28:46.614Z,18.92
2023-02-23T21:31:14.568Z,20.17
2023-02-23T21:33:43.483Z,19.73
2023-02-23T21:36:12.423Z,19.95
2023-02-23T21:38:42.472Z,20.25
2023-02-23T21:41:12.331Z,20.10
2023-02-23T21:43:41.278Z,19.85
2023-02-23T21:46:16.452Z,20.35
2023-02-23T21:48:43.966Z,21.05
2023-02-23T21:51:13.092Z,21.92
2023-02-23T21:53:40.965Z,21.23
2023-02-23T21:56:17.737Z,19.80
2023-02-23T21:58:50.982Z,21.80
2023-02-23T22:01:24.681Z,20.35
2023-02-23T22:03:54.763Z,20.77
2023-02-23T22:06:28.541Z,21.33
2023-02-23T22:08:56.689Z,21.83
2023-02-23T22:11:26.291Z,22.58
2023-02-23T22:13:59.335Z,21.40
2023-02-23T22:16:32.303Z,22.20
2023-02-23T22:19:03.644Z,21.30
2023-02-23T22:21:33.454Z,22.40
2023-02-23T22:24:01.700Z,21.83
2023-02-23T22:26:30.335Z,22.60
2023-02-23T22:28:57.328Z,22.67
2023-02-23T22:31:25.048Z,22.98
2023-02-23T22:33:52.181Z,23.10
2023-02-23T22:36:19.968Z,23.67
2023-02-23T22:38:46.905Z,23.70
2023-02-23T22:41:14.144Z,23.40
2023-02-23T22:43:46.126Z,24.00
2023-02-23T22:46:16.282Z,24.23
2023-02-23T22:48:45.066Z,22.85
2023-02-23T22:51:14.198Z,23.15
2023-02-23T22:53:41.336Z,22.83
2023-02-23T22:56:09.708Z,23.23
2023-02-23T22:58:36.987Z,22.77
2023-02-23T23:01:06.331Z,24.65
2023-02-23T23:03:47.991Z,24.65
2023-02-23T23:06:17.950Z,24.65
2023-02-23T23:08:45.757Z,25.77
2023-02-23T23:11:16.099Z,25.60
2023-02-23T23:13:46.526Z,24.80
2023-02-23T23:16:31.551Z,24.33
2023-02-23T23:19:02.890Z,25.80
2023-02-23T23:21:32.779Z,25.15
2023-02-23T23:24:05.675Z,25.48
2023-02-23T23:26:35.542Z,24.13
2023-02-23T23:29:07.894Z,25.15
2023-02-23T23:31:35.611Z,23.65
2023-02-23T23:34:06.040Z,25.35
2023-02-23T23:36:42.964Z,26.27
2023-02-23T23:39:16.330Z,23.70
2023-02-23T23:41:46.819Z,26.02
2023-02-23T23:44:19.126Z,24.40
2023-02-23T23:46:47.272Z,27.17
2023-02-23T23:49:17.255Z,25.25
2023-02-23T23:51:47.855Z,25.42
2023-02-23T23:54:18.055Z,25.83
2023-02-23T23:56:45.342Z,24.73
2023-02-23T23:59:17.638Z,26.67
